Time;durP1;ratioP1;P1;durP2;ratioP2;P2;SDS_P1;SDS_P2;PMS_P1;PMS_P2;Temp;Humidity;BMP_temperature;BMP_pressure;BME280_temperature;BME280_humidity;BME280_pressure;Samples;Min_cycle;Max_cycle;Signal;HPM_P1;HPM_P2
2022/11/21 00:00:05;;;;;;;;;9.33;9.00;;;;;7.67;80.85;99349.97;5065568;28;45729;-74
2022/11/21 00:02:31;;;;;;;;;9.67;9.00;;;;;7.63;80.78;99343.06;5073339;28;45604;-74
2022/11/21 00:04:56;;;;;;;;;15.00;11.33;;;;;7.61;80.91;99337.00;5075527;27;45455;-73
2022/11/21 00:07:22;;;;;;;;;9.33;9.33;;;;;7.58;81.12;99334.44;5076420;27;45669;-74
2022/11/21 00:09:47;;;;;;;;;12.67;11.00;;;;;7.57;81.29;99334.47;5074165;27;45544;-73
2022/11/21 00:12:15;;;;;;;;;12.33;10.00;;;;;7.54;81.22;99334.59;5075320;27;45462;-74
2022/11/21 00:14:40;;;;;;;;;13.33;11.00;;;;;7.50;81.47;99325.91;5067727;27;45429;-73
2022/11/21 00:17:05;;;;;;;;;12.33;12.33;;;;;7.46;81.47;99318.16;5076258;27;45865;-73
2022/11/21 00:19:32;;;;;;;;;15.67;12.33;;;;;7.42;81.80;99313.88;5073397;27;45347;-74
2022/11/21 00:21:57;;;;;;;;;10.67;10.00;;;;;7.37;81.94;99308.75;5074231;28;47495;-73
2022/11/21 00:24:23;;;;;;;;;8.67;7.67;;;;;7.33;81.76;99301.88;5070601;27;45491;-74
2022/11/21 00:26:48;;;;;;;;;7.00;7.00;;;;;7.29;81.33;99308.94;5072196;28;45465;-74
2022/11/21 00:29:13;;;;;;;;;5.00;5.00;;;;;7.25;81.58;99304.66;5068119;28;45439;-73
2022/11/21 00:31:39;;;;;;;;;10.00;8.00;;;;;7.21;81.84;99297.75;5075894;28;45444;-74
2022/11/21 00:34:04;;;;;;;;;9.00;9.00;;;;;7.18;82.01;99302.22;5070714;27;45454;-74
2022/11/21 00:36:29;;;;;;;;;8.33;8.33;;;;;7.14;82.17;99304.06;5070754;28;45553;-73
2022/11/21 00:38:55;;;;;;;;;9.00;8.00;;;;;7.12;82.27;99290.13;5075121;27;45459;-74
2022/11/21 00:41:20;;;;;;;;;9.00;9.00;;;;;7.10;82.63;99293.66;5075056;27;45443;-74
2022/11/21 00:43:45;;;;;;;;;11.00;9.67;;;;;7.08;82.88;99290.22;5074781;27;45556;-74
2022/11/21 00:46:11;;;;;;;;;15.00;13.00;;;;;7.06;83.01;99285.00;5075236;27;45416;-73
2022/11/21 00:48:36;;;;;;;;;15.67;15.00;;;;;7.06;83.37;99276.28;5075068;27;45523;-74
2022/11/21 00:51:02;;;;;;;;;16.67;15.33;;;;;7.05;83.85;99272.78;5072561;27;45475;-74
2022/11/21 00:53:28;;;;;;;;;24.33;19.00;;;;;7.04;84.20;99271.06;5074028;28;45420;-74
2022/11/21 00:55:54;;;;;;;;;28.00;23.00;;;;;7.03;84.23;99265.88;5069055;28;45448;-74
2022/11/21 00:58:19;;;;;;;;;25.00;23.00;;;;;7.00;84.56;99274.69;5073995;28;45412;-74
2022/11/21 01:00:45;;;;;;;;;27.67;19.67;;;;;6.99;84.31;99272.97;5074496;27;46058;-74
2022/11/21 01:03:10;;;;;;;;;15.67;14.67;;;;;6.97;84.09;99274.75;5075274;27;45498;-74
2022/11/21 01:05:35;;;;;;;;;18.00;18.00;;;;;6.92;84.32;99272.22;5066979;27;45318;-74
2022/11/21 01:08:01;;;;;;;;;22.33;20.33;;;;;6.88;84.75;99269.69;5074583;27;45549;-74
2022/11/21 01:10:26;;;;;;;;;22.00;20.33;;;;;6.87;84.89;99278.50;5072725;28;46274;-74
2022/11/21 01:12:51;;;;;;;;;23.67;18.67;;;;;6.86;85.08;99277.63;5074396;27;45429;-74
2022/11/21 01:15:17;;;;;;;;;17.33;17.00;;;;;6.85;85.08;99268.03;5062730;27;45384;-73
2022/11/21 01:17:42;;;;;;;;;18.33;18.00;;;;;6.83;84.88;99263.72;5074202;27;45479;-74
2022/11/21 01:20:08;;;;;;;;;21.67;16.00;;;;;6.80;85.05;99263.78;5073602;27;46620;-73
2022/11/21 01:22:33;;;;;;;;;19.67;17.67;;;;;6.79;85.12;99265.53;5074901;27;45577;-74
2022/11/21 01:24:59;;;;;;;;;22.00;19.00;;;;;6.78;85.15;99276.06;5070282;28;45760;-74
2022/11/21 01:27:24;;;;;;;;;18.67;18.33;;;;;6.77;85.33;99275.19;5074382;27;45571;-73
2022/11/21 01:29:51;;;;;;;;;16.67;16.33;;;;;6.76;85.35;99276.09;5066321;28;45514;-74
2022/11/21 01:32:16;;;;;;;;;24.67;22.00;;;;;6.73;85.35;99270.03;5070722;28;45399;-74
2022/11/21 01:34:42;;;;;;;;;25.67;22.67;;;;;6.71;85.78;99259.59;5068161;28;45472;-73
2022/11/21 01:37:07;;;;;;;;;18.33;18.33;;;;;6.70;85.94;99262.28;5074393;27;45404;-74
2022/11/21 01:39:33;;;;;;;;;25.67;22.00;;;;;6.69;86.00;99256.19;5064668;27;45958;-74
2022/11/21 01:41:58;;;;;;;;;24.67;22.00;;;;;6.69;85.72;99250.06;5074268;27;45487;-73
2022/11/21 01:44:44;;;;;;;;;22.00;19.00;;;;;6.68;85.94;99250.97;5066815;28;45519;-74
2022/11/21 01:47:09;;;;;;;;;18.67;18.00;;;;;6.69;85.94;99260.56;5062727;28;45562;-74
2022/11/21 01:49:34;;;;;;;;;22.00;20.67;;;;;6.68;85.96;99243.13;5067170;28;45483;-74
2022/11/21 01:52:05;;;;;;;;;19.33;16.33;;;;;6.67;86.17;99230.91;5074328;27;45381;-74
2022/11/21 01:54:43;;;;;;;;;22.00;21.67;;;;;6.67;86.03;99236.16;5073092;27;45491;-73
2022/11/21 01:57:18;;;;;;;;;13.00;13.00;;;;;6.68;86.31;99232.63;5064863;28;45812;-74
2022/11/21 01:59:52;;;;;;;;;16.33;15.33;;;;;6.69;85.89;99230.00;5071167;28;45605;-74
2022/11/21 02:02:28;;;;;;;;;21.33;20.33;;;;;6.70;85.96;99239.56;5073185;27;45399;-74
2022/11/21 02:04:55;;;;;;;;;20.67;19.33;;;;;6.70;85.99;99234.31;5071545;27;45443;-74
2022/11/21 02:07:23;;;;;;;;;23.00;21.67;;;;;6.71;86.02;99228.16;5070515;27;45464;-74
2022/11/21 02:09:56;;;;;;;;;22.67;20.00;;;;;6.70;85.60;99228.22;5068422;28;47139;-74
2022/11/21 02:12:53;;;;;;;;;16.33;14.33;;;;;6.69;85.35;99219.50;5067939;28;45364;-73
2022/11/21 02:15:22;;;;;;;;;22.00;17.67;;;;;6.66;85.59;99211.72;5066530;28;45508;-74
2022/11/21 02:17:47;;;;;;;;;20.67;16.00;;;;;6.65;85.58;99216.09;5073831;27;45579;-74
2022/11/21 02:20:22;;;;;;;;;17.33;15.67;;;;;6.65;85.40;99202.13;5072975;27;45435;-74
2022/11/21 02:23:17;;;;;;;;;23.67;21.33;;;;;6.64;85.19;99203.88;5073850;27;45503;-74
2022/11/21 02:25:43;;;;;;;;;22.33;21.33;;;;;6.63;85.27;99199.53;5054274;28;45431;-74
2022/11/21 02:28:15;;;;;;;;;25.67;21.67;;;;;6.64;85.13;99184.69;5072742;28;45877;-74
2022/11/21 02:30:42;;;;;;;;;15.00;14.33;;;;;6.63;85.04;99185.59;5068968;28;45602;-74
2022/11/21 02:33:07;;;;;;;;;27.00;22.33;;;;;6.64;84.97;99192.53;5074103;28;45486;-73
2022/11/21 02:35:33;;;;;;;;;31.00;24.67;;;;;6.63;85.15;99196.06;5068911;28;45549;-74
2022/11/21 02:38:02;;;;;;;;;22.00;20.33;;;;;6.65;85.19;99196.88;5073475;28;45367;-74
2022/11/21 02:40:33;;;;;;;;;33.00;28.33;;;;;6.67;85.29;99196.84;5073628;27;45546;-73
2022/11/21 02:43:30;;;;;;;;;22.67;22.67;;;;;6.68;85.10;99185.47;5073590;28;45419;-73
2022/11/21 02:45:55;;;;;;;;;27.67;23.33;;;;;6.67;84.92;99187.25;5060332;28;45759;-74
2022/11/21 02:48:21;;;;;;;;;30.00;26.67;;;;;6.70;85.19;99188.94;5073434;27;45286;-73
2022/11/21 02:50:46;;;;;;;;;31.33;27.00;;;;;6.70;85.10;99184.56;5066211;28;46407;-74
2022/11/21 02:53:17;;;;;;;;;34.33;29.33;;;;;6.70;85.04;99179.31;5073570;27;45384;-73
2022/11/21 02:55:43;;;;;;;;;29.00;25.00;;;;;6.72;85.12;99176.63;5071064;27;45574;-74
2022/11/21 02:58:10;;;;;;;;;28.67;24.00;;;;;6.71;85.15;99169.66;5072964;27;45554;-74
2022/11/21 03:00:37;;;;;;;;;26.33;22.67;;;;;6.71;85.15;99170.53;5068839;27;45590;-74
2022/11/21 03:03:02;;;;;;;;;25.33;22.33;;;;;6.72;84.88;99174.00;5073459;27;45360;-74
2022/11/21 03:05:29;;;;;;;;;22.33;21.00;;;;;6.73;85.18;99171.34;5070256;27;45455;-73
2022/11/21 03:07:54;;;;;;;;;20.33;19.67;;;;;6.74;84.77;99157.38;5073398;27;45574;-73
2022/11/21 03:10:20;;;;;;;;;29.00;25.00;;;;;6.73;85.14;99153.03;5068486;27;45767;-73
2022/11/21 03:12:45;;;;;;;;;24.00;21.00;;;;;6.73;85.18;99146.91;5073074;27;45448;-73
2022/11/21 03:15:14;;;;;;;;;21.33;20.33;;;;;6.73;85.29;99147.78;5071109;28;45582;-74
2022/11/21 03:17:41;;;;;;;;;25.00;20.33;;;;;6.73;85.01;99139.91;5071925;28;45479;-74
2022/11/21 03:20:07;;;;;;;;;26.33;22.67;;;;;6.71;84.93;99128.63;5070401;27;47783;-73
2022/11/21 03:22:33;;;;;;;;;24.67;19.33;;;;;6.70;84.95;99124.31;5063901;27;45555;-73
2022/11/21 03:24:58;;;;;;;;;19.00;15.67;;;;;6.71;84.74;99115.50;5068058;28;45479;-73
2022/11/21 03:27:24;;;;;;;;;17.67;14.67;;;;;6.69;84.97;99117.34;5072792;28;45380;-73
2022/11/21 03:29:49;;;;;;;;;22.00;17.33;;;;;6.69;84.93;99109.47;5067581;27;46595;-73
2022/11/21 03:32:15;;;;;;;;;15.67;15.00;;;;;6.70;85.07;99097.25;5072463;28;45537;-73
2022/11/21 03:34:40;;;;;;;;;14.33;13.33;;;;;6.68;84.96;99102.53;5070434;28;45469;-73
2022/11/21 03:37:06;;;;;;;;;12.67;11.33;;;;;6.67;85.33;99094.69;5076691;28;45470;-74
2022/11/21 03:39:31;;;;;;;;;14.67;14.00;;;;;6.66;84.89;99093.84;5073281;28;45501;-73
2022/11/21 03:41:57;;;;;;;;;13.33;12.33;;;;;6.62;84.91;99090.41;5074932;28;45450;-73
2022/11/21 03:44:22;;;;;;;;;15.00;15.00;;;;;6.60;85.09;99091.34;5073055;28;45519;-74
2022/11/21 03:46:48;;;;;;;;;20.33;18.33;;;;;6.57;85.46;99096.66;5075257;28;45404;-73
2022/11/21 03:49:17;;;;;;;;;18.33;17.00;;;;;6.56;85.31;99097.56;5074005;27;46564;-73
2022/11/21 03:51:43;;;;;;;;;21.00;16.00;;;;;6.52;85.32;99091.56;5076278;27;45503;-73
2022/11/21 03:54:10;;;;;;;;;17.00;15.00;;;;;6.50;85.20;99090.72;5072752;27;45407;-74
2022/11/21 03:56:35;;;;;;;;;19.67;17.33;;;;;6.49;85.45;99091.63;5073160;27;45532;-74
2022/11/21 03:59:01;;;;;;;;;23.00;20.33;;;;;6.48;85.39;99083.81;5073620;27;45606;-74
2022/11/21 04:01:27;;;;;;;;;17.33;17.00;;;;;6.45;85.18;99081.25;5073604;28;45596;-74
2022/11/21 04:03:53;;;;;;;;;11.67;11.67;;;;;6.41;85.24;99084.84;5076414;28;45518;-74
2022/11/21 04:06:20;;;;;;;;;17.67;17.00;;;;;6.38;85.83;99064.81;5066557;27;45391;-74
2022/11/21 04:08:46;;;;;;;;;17.33;15.67;;;;;6.33;85.75;99069.31;5073488;27;46160;-74
2022/11/21 04:11:12;;;;;;;;;19.33;16.33;;;;;6.28;86.03;99069.44;5075867;28;45427;-74
2022/11/21 04:13:38;;;;;;;;;19.67;18.33;;;;;6.23;85.71;99067.81;5075550;27;45609;-74
2022/11/21 04:16:04;;;;;;;;;17.33;14.67;;;;;6.17;85.96;99060.13;5075699;27;45499;-73
2022/11/21 04:18:29;;;;;;;;;13.00;13.00;;;;;6.13;86.15;99058.47;5073944;27;45605;-74
2022/11/21 04:20:59;;;;;;;;;19.33;15.00;;;;;6.07;86.30;99048.97;5066541;27;45458;-74
2022/11/21 04:23:26;;;;;;;;;13.33;12.33;;;;;6.05;86.48;99052.53;5075730;27;45648;-74
2022/11/21 04:25:51;;;;;;;;;19.33;17.00;;;;;6.03;86.43;99047.34;5066549;27;45515;-74
2022/11/21 04:28:16;;;;;;;;;14.00;13.00;;;;;6.01;86.72;99051.75;5075738;27;45910;-74
2022/11/21 04:30:42;;;;;;;;;17.33;13.67;;;;;6.00;86.82;99047.41;5074015;27;45434;-74
2022/11/21 04:33:07;;;;;;;;;18.33;15.00;;;;;6.02;87.02;99042.16;5076254;27;45660;-74
2022/11/21 04:35:33;;;;;;;;;22.00;17.67;;;;;6.03;87.13;99046.50;5073088;27;45645;-74
2022/11/21 04:37:58;;;;;;;;;15.67;15.67;;;;;6.05;87.17;99044.69;5075550;27;46106;-74
2022/11/21 04:40:24;;;;;;;;;18.00;18.00;;;;;6.09;87.16;99043.72;5073739;27;45454;-74
2022/11/21 04:42:49;;;;;;;;;17.67;16.00;;;;;6.14;86.94;99044.47;5074226;28;45795;-74
2022/11/21 04:45:16;;;;;;;;;16.67;15.67;;;;;6.19;86.67;99046.09;5072407;27;45535;-74
2022/11/21 04:47:44;;;;;;;;;19.67;16.33;;;;;6.22;86.71;99029.44;5074138;27;46265;-74
2022/11/21 04:50:11;;;;;;;;;17.00;16.00;;;;;6.28;86.48;99037.16;5071938;27;45442;-74
2022/11/21 04:52:36;;;;;;;;;18.33;15.00;;;;;6.33;86.52;99030.06;5075059;27;45440;-74
2022/11/21 04:55:02;;;;;;;;;15.00;12.00;;;;;6.36;86.08;99018.66;5064817;28;45917;-74
2022/11/21 04:57:28;;;;;;;;;11.33;11.33;;;;;6.38;85.92;99022.94;5069531;28;46391;-74
2022/11/21 04:59:54;;;;;;;;;13.33;13.33;;;;;6.40;85.68;99023.75;5075102;27;45475;-74
2022/11/21 05:02:20;;;;;;;;;18.33;15.00;;;;;6.44;85.53;99021.94;5075686;27;45458;-74
2022/11/21 05:04:46;;;;;;;;;16.33;14.33;;;;;6.46;85.66;99014.91;5074411;28;45589;-74
2022/11/21 05:07:12;;;;;;;;;15.33;14.33;;;;;6.48;85.47;99008.72;5074704;27;46093;-73
2022/11/21 05:09:37;;;;;;;;;18.67;12.00;;;;;6.49;85.75;99014.81;5073042;27;45487;-74
2022/11/21 05:14:47;;;;;;;;;16.00;13.33;;;;;6.48;85.80;99007.88;5073571;28;45451;-74
2022/11/21 05:17:12;;;;;;;;;16.33;16.33;;;;;6.43;85.56;99010.59;5074669;27;46079;-74
2022/11/21 05:19:38;;;;;;;;;15.33;15.33;;;;;6.38;85.38;99017.69;5069902;28;45498;-74
2022/11/21 05:22:03;;;;;;;;;25.33;23.00;;;;;6.33;85.61;99022.19;5074048;28;45400;-74
2022/11/21 05:24:28;;;;;;;;;16.33;16.33;;;;;6.27;85.75;99012.72;5073133;28;45524;-74
2022/11/21 05:26:54;;;;;;;;;35.00;28.00;;;;;6.21;85.60;99015.50;5074643;27;45511;-74
2022/11/21 05:29:20;;;;;;;;;16.00;16.00;;;;;6.14;85.73;99013.06;5073770;28;45462;-74
2022/11/21 05:31:45;;;;;;;;;20.67;20.33;;;;;6.07;86.17;99016.72;5063531;27;45464;-73
2022/11/21 05:34:10;;;;;;;;;24.67;23.33;;;;;6.04;86.23;99006.31;5072161;27;45411;-73
2022/11/21 05:36:36;;;;;;;;;21.33;21.33;;;;;6.00;86.21;99005.56;5072136;27;45403;-73
2022/11/21 05:39:01;;;;;;;;;20.67;18.00;;;;;5.95;86.45;99005.66;5069946;27;45708;-74
2022/11/21 05:41:26;;;;;;;;;19.33;17.33;;;;;5.91;86.83;98998.75;5074379;27;45458;-73
2022/11/21 05:43:52;;;;;;;;;26.67;20.67;;;;;5.88;86.63;98993.59;5073405;27;45356;-74
2022/11/21 05:46:20;;;;;;;;;20.67;19.00;;;;;5.85;86.79;98983.19;5072222;28;46951;-73
2022/11/21 05:48:47;;;;;;;;;24.00;13.00;;;;;5.83;86.93;98985.00;5072660;27;45481;-73
2022/11/21 05:51:13;;;;;;;;;1.00;0.00;;;;;5.85;87.06;98990.19;5071664;28;45532;-73
2022/11/21 05:53:39;;;;;;;;;23.00;18.00;;;;;5.83;86.98;98995.44;5072251;27;45414;-74
2022/11/21 05:56:10;;;;;;;;;19.00;16.00;;;;;5.81;87.18;98984.16;5069269;27;46286;-73
2022/11/21 05:58:36;;;;;;;;;20.00;19.33;;;;;5.78;87.11;98978.13;5071551;27;45531;-73
2022/11/21 06:01:02;;;;;;;;;23.67;19.67;;;;;5.76;87.47;98972.94;5073270;27;45423;-74
2022/11/21 06:03:31;;;;;;;;;19.00;18.00;;;;;5.76;87.28;98956.38;5071133;28;45485;-73
2022/11/21 06:06:10;;;;;;;;;17.33;14.00;;;;;5.77;87.49;98950.25;5065310;28;45551;-73
2022/11/21 06:08:38;;;;;;;;;20.67;18.00;;;;;5.78;87.53;98950.22;5071374;27;45604;-73
2022/11/21 06:11:05;;;;;;;;;17.00;15.00;;;;;5.77;87.40;98940.66;5072099;28;45400;-73
2022/11/21 06:13:32;;;;;;;;;19.67;15.00;;;;;5.77;87.52;98924.09;5071915;27;45414;-74
2022/11/21 06:16:05;;;;;;;;;21.00;19.00;;;;;5.76;87.34;98909.28;5072070;28;45443;-73
2022/11/21 06:18:33;;;;;;;;;17.00;16.00;;;;;5.75;87.44;98899.72;5072764;27;45400;-73
2022/11/21 06:21:13;;;;;;;;;22.33;20.67;;;;;5.75;87.35;98895.34;5071793;28;45530;-74
2022/11/21 06:23:38;;;;;;;;;19.00;17.00;;;;;5.75;87.03;98897.13;5072950;27;45406;-73
2022/11/21 06:26:06;;;;;;;;;17.00;16.00;;;;;5.75;87.54;98889.25;5068554;28;45923;-73
2022/11/21 06:28:34;;;;;;;;;16.67;15.00;;;;;5.77;87.43;98893.56;5070414;27;45471;-73
2022/11/21 06:31:04;;;;;;;;;19.67;15.67;;;;;5.76;86.81;98884.00;5071799;28;45445;-73
2022/11/21 06:33:30;;;;;;;;;15.00;14.00;;;;;5.74;86.93;98875.31;5072842;28;45553;-73
2022/11/21 06:35:55;;;;;;;;;18.33;15.33;;;;;5.75;87.21;98869.19;5068676;27;45371;-74
2022/11/21 06:38:20;;;;;;;;;17.67;15.00;;;;;5.77;87.11;98872.66;5066391;28;45511;-73
2022/11/21 06:40:46;;;;;;;;;15.67;13.67;;;;;5.77;86.69;98869.16;5064547;27;45496;-73
2022/11/21 06:43:11;;;;;;;;;20.33;15.00;;;;;5.78;87.08;98873.50;5061292;28;45478;-73
2022/11/21 06:45:37;;;;;;;;;24.00;15.67;;;;;5.78;87.02;98868.28;5065578;28;45498;-73
2022/11/21 06:48:03;;;;;;;;;19.33;18.67;;;;;5.77;87.11;98867.41;5071985;27;45387;-73
2022/11/21 06:50:32;;;;;;;;;19.33;15.33;;;;;5.80;87.21;98869.09;5070184;27;45575;-73
2022/11/21 06:52:58;;;;;;;;;17.00;14.67;;;;;5.78;87.24;98858.66;5054903;28;45472;-73
2022/11/21 06:55:26;;;;;;;;;23.33;19.67;;;;;5.79;87.16;98854.31;5083702;27;47968;-74
2022/11/21 06:57:52;;;;;;;;;20.33;17.33;;;;;5.80;86.97;98850.78;5068525;28;45496;-76
2022/11/21 07:00:18;;;;;;;;;20.00;18.67;;;;;5.81;87.11;98848.13;5068326;27;45365;-74
2022/11/21 07:02:43;;;;;;;;;19.00;15.33;;;;;5.83;86.98;98845.50;5061463;27;45505;-74
2022/11/21 07:05:08;;;;;;;;;16.67;16.00;;;;;5.84;86.93;98835.00;5067154;28;46541;-74
2022/11/21 07:07:34;;;;;;;;;20.00;14.33;;;;;5.85;86.71;98828.84;5060928;28;45504;-73
2022/11/21 07:09:59;;;;;;;;;13.00;12.67;;;;;5.88;86.55;98822.66;5069000;28;45569;-73
2022/11/21 07:15:09;;;;;;;;;16.33;14.00;;;;;5.95;86.55;98793.72;5061703;28;45835;-73
2022/11/21 07:17:35;;;;;;;;;12.33;10.67;;;;;5.98;86.28;98795.41;5086415;27;45992;-73
2022/11/21 07:20:02;;;;;;;;;18.00;14.33;;;;;6.01;86.38;98802.31;5068050;27;45447;-73
2022/11/21 07:22:27;;;;;;;;;11.00;9.33;;;;;6.05;86.49;98799.56;5087079;27;45478;-73
2022/11/21 07:24:53;;;;;;;;;16.33;14.00;;;;;6.11;86.38;98788.06;5067163;27;45412;-73
2022/11/21 07:27:18;;;;;;;;;19.00;17.00;;;;;6.16;86.23;98789.69;5070898;27;45498;-74
2022/11/21 07:29:43;;;;;;;;;24.00;20.00;;;;;6.18;86.36;98800.97;5069239;27;45373;-74
2022/11/21 07:32:09;;;;;;;;;14.67;14.00;;;;;6.21;86.24;98800.84;5071190;27;45606;-73
2022/11/21 07:34:34;;;;;;;;;23.33;18.33;;;;;6.25;86.27;98806.88;5062657;28;45434;-74
2022/11/21 07:37:00;;;;;;;;;21.67;19.33;;;;;6.28;85.79;98798.94;5070145;28;45361;-73
2022/11/21 07:39:25;;;;;;;;;20.00;17.67;;;;;6.29;85.53;98796.28;5064928;28;45443;-74
2022/11/21 07:41:50;;;;;;;;;25.33;22.33;;;;;6.33;85.53;98786.59;5070726;28;45461;-74
2022/11/21 07:44:16;;;;;;;;;27.33;19.67;;;;;6.36;85.59;98786.50;5068089;27;46254;-74
2022/11/21 07:46:41;;;;;;;;;17.33;15.00;;;;;6.40;85.67;98789.88;5066321;27;45352;-74
2022/11/21 07:49:07;;;;;;;;;16.33;16.33;;;;;6.43;85.42;98790.66;5071670;27;45408;-73
2022/11/21 07:51:32;;;;;;;;;21.00;19.33;;;;;6.48;85.25;98780.03;5072214;27;45481;-74
2022/11/21 07:53:57;;;;;;;;;17.67;16.67;;;;;6.51;85.01;98769.50;5061599;28;46345;-74
2022/11/21 07:56:25;;;;;;;;;20.00;18.00;;;;;6.53;84.76;98754.59;5070439;28;45866;-74
2022/11/21 07:58:51;;;;;;;;;24.33;21.67;;;;;6.56;85.17;98755.34;5069626;27;45454;-74
2022/11/21 08:01:17;;;;;;;;;24.00;17.33;;;;;6.60;84.75;98745.63;5102112;27;45709;-74
2022/11/21 08:03:42;;;;;;;;;19.33;14.67;;;;;6.64;84.58;98737.66;5068282;28;45554;-74
2022/11/21 08:06:11;;;;;;;;;15.33;15.33;;;;;6.69;84.49;98744.50;5064034;27;45535;-73
2022/11/21 08:08:36;;;;;;;;;16.67;14.67;;;;;6.71;84.30;98738.28;5070398;27;45441;-74
2022/11/21 08:11:06;;;;;;;;;17.00;14.67;;;;;6.74;84.18;98726.88;5071224;28;45376;-73
2022/11/21 08:13:32;;;;;;;;;21.33;16.00;;;;;6.75;83.89;98726.81;5069886;28;47028;-74
2022/11/21 08:15:58;;;;;;;;;16.67;14.33;;;;;6.76;84.05;98719.81;5071201;28;45494;-74
2022/11/21 08:18:23;;;;;;;;;23.67;18.67;;;;;6.78;84.08;98718.03;5070417;28;45832;-74
2022/11/21 08:20:48;;;;;;;;;20.67;19.33;;;;;6.81;83.83;98715.31;5067292;28;45391;-74
2022/11/21 08:23:14;;;;;;;;;20.00;17.00;;;;;6.83;83.75;98696.03;5065734;28;45358;-73
2022/11/21 08:25:41;;;;;;;;;18.67;14.67;;;;;6.88;83.96;98690.59;5073750;28;45410;-73
2022/11/21 08:28:08;;;;;;;;;20.33;18.00;;;;;6.93;84.03;98696.56;5073636;28;45514;-72
2022/11/21 08:30:35;;;;;;;;;24.33;21.00;;;;;6.96;83.50;98684.22;5074179;28;45565;-72
2022/11/21 08:33:00;;;;;;;;;24.67;22.33;;;;;6.98;83.65;98681.56;5073952;28;45875;-73
2022/11/21 08:35:27;;;;;;;;;22.33;16.67;;;;;7.00;83.37;98672.75;5073220;27;45468;-72
2022/11/21 08:38:00;;;;;;;;;21.67;17.67;;;;;7.04;83.42;98668.25;5074045;28;45583;-74
2022/11/21 08:40:27;;;;;;;;;22.33;19.67;;;;;7.05;83.26;98664.72;5073340;27;45506;-73
2022/11/21 08:43:05;;;;;;;;;20.33;17.00;;;;;7.10;82.92;98636.59;5073850;28;45403;-73
2022/11/21 08:45:32;;;;;;;;;17.00;17.00;;;;;7.10;83.03;98631.34;5073578;27;45403;-73
2022/11/21 08:48:01;;;;;;;;;10.67;10.00;;;;;7.13;82.86;98612.03;5075178;27;45469;-75
2022/11/21 08:50:30;;;;;;;;;19.00;17.67;;;;;7.16;82.75;98604.94;5068423;28;45387;-73
2022/11/21 08:53:00;;;;;;;;;17.33;15.67;;;;;7.22;82.59;98593.38;5074402;27;45399;-74
2022/11/21 08:55:26;;;;;;;;;20.00;16.00;;;;;7.24;81.75;98573.19;5072601;28;45399;-74
2022/11/21 08:57:51;;;;;;;;;14.00;11.33;;;;;7.26;81.72;98561.75;5073218;28;45453;-72
2022/11/21 09:00:17;;;;;;;;;20.00;19.67;;;;;7.28;81.60;98562.56;5071772;27;45443;-72
2022/11/21 09:02:43;;;;;;;;;21.00;17.67;;;;;7.30;81.29;98550.25;5069621;28;45660;-73
2022/11/21 09:05:09;;;;;;;;;21.00;19.00;;;;;7.34;81.68;98545.75;5066558;27;45543;-74
2022/11/21 09:07:35;;;;;;;;;17.00;16.33;;;;;7.39;81.33;98556.06;5070728;28;45544;-74
2022/11/21 09:10:00;;;;;;;;;17.00;14.67;;;;;7.40;81.43;98556.00;5070009;28;45668;-74
2022/11/21 09:12:26;;;;;;;;;20.00;18.00;;;;;7.44;81.51;98547.13;5073853;28;46429;-74
2022/11/21 09:20:19;;;;;;;;;17.33;16.33;;;;;7.48;80.84;98522.50;5074827;28;45442;-74
2022/11/21 09:22:45;;;;;;;;;22.67;19.33;;;;;7.51;80.71;98516.28;5074923;27;45650;-73
2022/11/21 09:25:10;;;;;;;;;18.33;17.00;;;;;7.51;80.80;98505.81;5074099;28;45419;-74
2022/11/21 09:27:35;;;;;;;;;21.00;18.00;;;;;7.52;80.58;98510.13;5072888;28;45444;-73
2022/11/21 09:30:01;;;;;;;;;18.33;17.67;;;;;7.55;80.68;98496.88;5074893;27;45346;-74
2022/11/21 09:32:26;;;;;;;;;14.33;12.00;;;;;7.55;80.63;98492.50;5073468;28;48150;-74
2022/11/21 09:34:51;;;;;;;;;17.00;15.33;;;;;7.57;80.50;98495.06;5075052;27;45371;-74
2022/11/21 09:37:17;;;;;;;;;17.33;14.00;;;;;7.62;80.64;98487.88;5075473;27;45754;-73
2022/11/21 09:39:42;;;;;;;;;21.67;18.33;;;;;7.64;80.58;98472.94;5071383;28;45587;-73
2022/11/21 09:42:20;;;;;;;;;18.33;15.00;;;;;7.65;80.85;98477.28;5066574;28;46027;-74
2022/11/21 09:45:04;;;;;;;;;15.67;14.33;;;;;7.67;80.79;98465.81;5075091;27;45477;-73
2022/11/21 09:47:34;;;;;;;;;17.00;16.33;;;;;7.71;80.69;98450.78;5067462;28;45515;-74
2022/11/21 09:50:00;;;;;;;;;22.67;18.00;;;;;7.72;80.86;98448.09;5074984;28;45521;-74
2022/11/21 09:52:40;;;;;;;;;22.67;20.00;;;;;7.75;80.95;98441.88;5074851;28;45367;-74
2022/11/21 09:55:40;;;;;;;;;22.00;20.67;;;;;7.83;80.94;98438.97;5072778;28;45460;-74
2022/11/21 09:58:19;;;;;;;;;21.67;18.67;;;;;7.85;80.90;98422.25;5057994;27;45317;-74
2022/11/21 10:00:44;;;;;;;;;23.00;21.00;;;;;7.91;80.98;98426.38;5073619;27;45597;-73
2022/11/21 10:03:12;;;;;;;;;18.33;16.00;;;;;8.00;79.80;98416.38;5072918;28;48107;-73
2022/11/21 10:05:44;;;;;;;;;9.33;7.67;;;;;8.10;78.05;98414.22;5074527;27;45530;-73
2022/11/21 10:08:32;;;;;;;;;14.67;14.67;;;;;8.20;77.53;98407.69;5074321;28;45518;-73
2022/11/21 10:11:05;;;;;;;;;14.67;13.33;;;;;8.32;77.92;98403.69;5074204;28;45434;-73
2022/11/21 10:13:45;;;;;;;;;13.33;10.33;;;;;8.43;77.12;98398.84;5073855;27;45936;-73
2022/11/21 10:16:28;;;;;;;;;15.67;12.00;;;;;8.57;77.82;98393.84;5072803;28;45597;-73
2022/11/21 10:19:04;;;;;;;;;14.67;12.33;;;;;8.72;77.06;98382.66;5073980;27;45427;-73
2022/11/21 10:22:28;;;;;;;;;20.00;13.67;;;;;8.81;77.33;98377.91;5074024;28;45385;-74
2022/11/21 10:25:03;;;;;;;;;18.00;15.67;;;;;8.89;77.14;98379.25;5021509;28;46373;-74
2022/11/21 10:27:42;;;;;;;;;18.67;14.33;;;;;8.94;76.95;98364.16;5056236;28;45568;-73
2022/11/21 10:30:16;;;;;;;;;19.00;16.00;;;;;8.98;77.02;98357.84;5074475;27;45387;-73
2022/11/21 10:32:47;;;;;;;;;16.33;14.00;;;;;9.03;77.17;98360.25;5073882;28;45501;-73
2022/11/21 10:35:14;;;;;;;;;20.33;20.33;;;;;9.10;76.83;98352.00;5073653;28;46354;-73
2022/11/21 10:37:47;;;;;;;;;12.00;11.00;;;;;9.17;76.59;98334.16;5073844;28;45351;-73
2022/11/21 10:40:43;;;;;;;;;14.00;11.00;;;;;9.23;75.97;98312.81;5073792;28;45423;-73
2022/11/21 10:46:11;;;;;;;;;14.33;11.33;;;;;9.33;75.79;98311.47;5072346;28;45768;-73
2022/11/21 10:48:36;;;;;;;;;21.00;18.00;;;;;9.36;75.58;98297.34;5073707;27;45404;-73
2022/11/21 10:51:30;;;;;;;;;15.33;13.33;;;;;9.40;75.60;98283.94;5065819;28;45404;-73
2022/11/21 10:56:53;;;;;;;;;17.33;16.00;;;;;9.49;75.26;98266.00;5061861;28;45898;-73
2022/11/21 10:59:29;;;;;;;;;13.75;12.25;;;;;9.53;74.73;98257.03;5073157;28;45360;-73
2022/11/21 11:02:24;;;;;;;;;12.00;11.00;;;;;9.62;75.04;98246.03;5073422;28;45493;-75
2022/11/21 11:05:15;;;;;;;;;14.00;13.33;;;;;9.70;74.48;98234.22;5059150;28;45533;-74
2022/11/21 11:07:40;;;;;;;;;17.67;14.00;;;;;9.75;74.07;98232.19;5072443;27;46350;-72
2022/11/21 11:10:22;;;;;;;;;15.33;13.67;;;;;9.78;73.71;98221.50;5073626;27;45389;-74
2022/11/21 11:15:38;;;;;;;;;18.00;12.33;;;;;9.89;73.58;98207.78;5072099;28;45474;-73
2022/11/21 11:18:05;;;;;;;;;21.00;16.33;;;;;9.93;73.88;98201.44;5072375;27;46329;-74
2022/11/21 11:20:32;;;;;;;;;18.33;14.67;;;;;9.95;73.77;98188.19;5072728;27;45430;-74
2022/11/21 11:22:58;;;;;;;;;22.67;17.33;;;;;9.94;73.58;98175.94;5072987;28;45318;-73
2022/11/21 11:25:23;;;;;;;;;23.00;23.00;;;;;9.96;73.96;98161.78;5071861;28;45568;-73
2022/11/21 11:27:49;;;;;;;;;15.00;15.00;;;;;9.97;73.67;98160.84;5072532;27;46455;-73
2022/11/21 11:30:16;;;;;;;;;17.00;15.33;;;;;10.01;73.71;98135.22;5072511;28;45535;-73
2022/11/21 11:32:42;;;;;;;;;21.00;21.00;;;;;10.00;73.90;98138.78;5088566;27;45514;-73
2022/11/21 11:35:20;;;;;;;;;24.33;21.33;;;;;10.02;73.93;98121.13;5071189;28;45472;-75
2022/11/21 11:37:59;;;;;;;;;18.33;18.00;;;;;10.02;73.78;98111.44;5069889;27;46313;-75
2022/11/21 11:40:39;;;;;;;;;17.33;16.67;;;;;10.04;73.91;98101.69;5059657;28;45590;-72
2022/11/21 11:50:12;;;;;;;;;26.00;19.67;;;;;10.13;74.10;98066.91;5072099;28;45400;-74
2022/11/21 11:52:45;;;;;;;;;18.67;16.33;;;;;10.16;73.92;98042.22;5069520;27;45678;-73
2022/11/21 11:55:28;;;;;;;;;16.67;16.33;;;;;10.17;73.47;98058.84;5071070;28;45546;-74
2022/11/21 11:57:58;;;;;;;;;15.33;15.00;;;;;10.15;73.71;98032.59;5073654;28;45360;-74